sensor_id;sensor_type;location;lat;lon;timestamp;temperature;humidity
31271;DHT22;17904;47.420;9.310;2022-08-20T00:00:13;15.00;99.90
31271;DHT22;17904;47.420;9.310;2022-08-20T00:02:41;15.00;99.90
31271;DHT22;17904;47.420;9.310;2022-08-20T00:05:08;15.00;99.90
31271;DHT22;17904;47.420;9.310;2022-08-20T00:07:35;15.00;99.90
31271;DHT22;17904;47.420;9.310;2022-08-20T00:10:03;15.00;99.90
31271;DHT22;17904;47.420;9.310;2022-08-20T00:12:31;15.00;99.90
31271;DHT22;17904;47.420;9.310;2022-08-20T00:14:58;15.00;99.90
31271;DHT22;17904;47.420;9.310;2022-08-20T00:17:25;15.00;99.90
31271;DHT22;17904;47.420;9.310;2022-08-20T00:19:51;15.00;99.90
31271;DHT22;17904;47.420;9.310;2022-08-20T00:22:18;15.00;99.90
31271;DHT22;17904;47.420;9.310;2022-08-20T00:24:45;15.00;99.90
31271;DHT22;17904;47.420;9.310;2022-08-20T00:27:11;15.00;99.90
31271;DHT22;17904;47.420;9.310;2022-08-20T00:29:38;15.00;99.90
31271;DHT22;17904;47.420;9.310;2022-08-20T00:32:05;15.00;99.90
31271;DHT22;17904;47.420;9.310;2022-08-20T00:34:31;15.00;99.90
31271;DHT22;17904;47.420;9.310;2022-08-20T00:36:58;15.00;99.90
31271;DHT22;17904;47.420;9.310;2022-08-20T00:39:25;15.00;99.90
31271;DHT22;17904;47.420;9.310;2022-08-20T00:41:51;15.00;99.90
31271;DHT22;17904;47.420;9.310;2022-08-20T00:44:19;15.00;99.90
31271;DHT22;17904;47.420;9.310;2022-08-20T00:46:47;15.00;99.90
31271;DHT22;17904;47.420;9.310;2022-08-20T00:49:16;15.00;99.90
31271;DHT22;17904;47.420;9.310;2022-08-20T00:51:48;15.00;99.90
31271;DHT22;17904;47.420;9.310;2022-08-20T00:56:47;15.00;99.90
31271;DHT22;17904;47.420;9.310;2022-08-20T00:59:16;15.00;99.90
31271;DHT22;17904;47.420;9.310;2022-08-20T01:01:43;15.10;99.90
31271;DHT22;17904;47.420;9.310;2022-08-20T01:04:23;15.00;99.90
31271;DHT22;17904;47.420;9.310;2022-08-20T01:06:50;15.00;99.90
31271;DHT22;17904;47.420;9.310;2022-08-20T01:09:17;15.00;99.90
31271;DHT22;17904;47.420;9.310;2022-08-20T01:12:05;15.00;99.90
31271;DHT22;17904;47.420;9.310;2022-08-20T01:14:32;15.00;99.90
31271;DHT22;17904;47.420;9.310;2022-08-20T01:16:59;15.00;99.90
31271;DHT22;17904;47.420;9.310;2022-08-20T01:19:29;15.00;99.90
31271;DHT22;17904;47.420;9.310;2022-08-20T01:21:57;15.00;99.90
31271;DHT22;17904;47.420;9.310;2022-08-20T01:24:31;15.00;99.90
31271;DHT22;17904;47.420;9.310;2022-08-20T01:27:00;14.90;99.90
31271;DHT22;17904;47.420;9.310;2022-08-20T01:29:30;14.90;99.90
31271;DHT22;17904;47.420;9.310;2022-08-20T01:32:00;14.80;99.90
31271;DHT22;17904;47.420;9.310;2022-08-20T01:34:28;14.80;99.90
31271;DHT22;17904;47.420;9.310;2022-08-20T01:36:55;14.80;99.90
31271;DHT22;17904;47.420;9.310;2022-08-20T01:39:24;14.70;99.90
31271;DHT22;17904;47.420;9.310;2022-08-20T01:41:54;14.70;99.90
31271;DHT22;17904;47.420;9.310;2022-08-20T01:44:23;14.70;99.90
31271;DHT22;17904;47.420;9.310;2022-08-20T01:46:51;14.70;99.90
31271;DHT22;17904;47.420;9.310;2022-08-20T01:51:51;14.60;99.90
31271;DHT22;17904;47.420;9.310;2022-08-20T01:54:18;14.60;99.90
31271;DHT22;17904;47.420;9.310;2022-08-20T01:56:56;14.60;99.90
31271;DHT22;17904;47.420;9.310;2022-08-20T01:59:23;14.60;99.90
31271;DHT22;17904;47.420;9.310;2022-08-20T02:01:50;14.50;99.90
31271;DHT22;17904;47.420;9.310;2022-08-20T02:04:18;14.50;99.90
31271;DHT22;17904;47.420;9.310;2022-08-20T02:06:49;14.50;99.90
31271;DHT22;17904;47.420;9.310;2022-08-20T02:09:30;14.50;99.90
31271;DHT22;17904;47.420;9.310;2022-08-20T02:11:58;14.40;99.90
31271;DHT22;17904;47.420;9.310;2022-08-20T02:14:25;14.40;99.90
31271;DHT22;17904;47.420;9.310;2022-08-20T02:16:52;14.40;99.90
31271;DHT22;17904;47.420;9.310;2022-08-20T02:19:22;14.30;99.90
31271;DHT22;17904;47.420;9.310;2022-08-20T02:21:50;14.30;99.90
31271;DHT22;17904;47.420;9.310;2022-08-20T02:24:18;14.30;99.90
31271;DHT22;17904;47.420;9.310;2022-08-20T02:26:45;14.20;99.90
31271;DHT22;17904;47.420;9.310;2022-08-20T02:29:13;14.20;99.90
31271;DHT22;17904;47.420;9.310;2022-08-20T02:31:40;14.20;99.90
31271;DHT22;17904;47.420;9.310;2022-08-20T02:34:29;14.20;99.90
31271;DHT22;17904;47.420;9.310;2022-08-20T02:36:55;14.10;99.90
31271;DHT22;17904;47.420;9.310;2022-08-20T02:39:22;14.10;99.90
31271;DHT22;17904;47.420;9.310;2022-08-20T02:41:49;14.10;99.90
31271;DHT22;17904;47.420;9.310;2022-08-20T02:44:15;14.10;99.90
31271;DHT22;17904;47.420;9.310;2022-08-20T02:46:44;14.10;99.90
31271;DHT22;17904;47.420;9.310;2022-08-20T02:49:10;14.00;99.90
31271;DHT22;17904;47.420;9.310;2022-08-20T02:51:37;14.00;99.90
31271;DHT22;17904;47.420;9.310;2022-08-20T02:54:04;14.00;99.90
31271;DHT22;17904;47.420;9.310;2022-08-20T02:56:30;14.00;99.90
31271;DHT22;17904;47.420;9.310;2022-08-20T02:58:57;13.90;99.90
31271;DHT22;17904;47.420;9.310;2022-08-20T03:01:24;13.90;99.90
31271;DHT22;17904;47.420;9.310;2022-08-20T03:03:50;13.90;99.90
31271;DHT22;17904;47.420;9.310;2022-08-20T03:06:17;13.90;99.90
31271;DHT22;17904;47.420;9.310;2022-08-20T03:08:44;13.80;99.90
31271;DHT22;17904;47.420;9.310;2022-08-20T03:11:11;13.80;99.90
31271;DHT22;17904;47.420;9.310;2022-08-20T03:13:38;13.80;99.90
31271;DHT22;17904;47.420;9.310;2022-08-20T03:16:05;13.80;99.90
31271;DHT22;17904;47.420;9.310;2022-08-20T03:18:35;13.80;99.90
31271;DHT22;17904;47.420;9.310;2022-08-20T03:21:02;13.70;99.90
31271;DHT22;17904;47.420;9.310;2022-08-20T03:23:31;13.70;99.90
31271;DHT22;17904;47.420;9.310;2022-08-20T03:26:02;13.70;99.90
31271;DHT22;17904;47.420;9.310;2022-08-20T03:28:30;13.70;99.90
31271;DHT22;17904;47.420;9.310;2022-08-20T03:30:57;13.70;99.90
31271;DHT22;17904;47.420;9.310;2022-08-20T03:33:25;13.70;99.90
31271;DHT22;17904;47.420;9.310;2022-08-20T03:35:52;13.70;99.90
31271;DHT22;17904;47.420;9.310;2022-08-20T03:38:20;13.70;99.90
31271;DHT22;17904;47.420;9.310;2022-08-20T03:40:58;13.70;99.90
31271;DHT22;17904;47.420;9.310;2022-08-20T03:43:25;13.60;99.90
31271;DHT22;17904;47.420;9.310;2022-08-20T03:45:51;13.60;99.90
31271;DHT22;17904;47.420;9.310;2022-08-20T03:48:18;13.60;99.90
31271;DHT22;17904;47.420;9.310;2022-08-20T03:50:45;13.60;99.90
31271;DHT22;17904;47.420;9.310;2022-08-20T03:53:13;13.60;99.90
31271;DHT22;17904;47.420;9.310;2022-08-20T03:55:41;13.60;99.90
31271;DHT22;17904;47.420;9.310;2022-08-20T03:58:11;13.60;99.90
31271;DHT22;17904;47.420;9.310;2022-08-20T04:03:06;13.60;99.90
31271;DHT22;17904;47.420;9.310;2022-08-20T04:05:35;13.60;99.90
31271;DHT22;17904;47.420;9.310;2022-08-20T04:08:10;13.60;99.90
31271;DHT22;17904;47.420;9.310;2022-08-20T04:10:37;13.50;99.90
31271;DHT22;17904;47.420;9.310;2022-08-20T04:13:05;13.50;99.90
31271;DHT22;17904;47.420;9.310;2022-08-20T04:15:33;13.50;99.90
31271;DHT22;17904;47.420;9.310;2022-08-20T04:18:03;13.50;99.90
31271;DHT22;17904;47.420;9.310;2022-08-20T04:20:32;13.50;99.90
31271;DHT22;17904;47.420;9.310;2022-08-20T04:22:59;13.50;99.90
31271;DHT22;17904;47.420;9.310;2022-08-20T04:25:27;13.50;99.90
31271;DHT22;17904;47.420;9.310;2022-08-20T04:28:02;13.50;99.90
31271;DHT22;17904;47.420;9.310;2022-08-20T04:30:30;13.50;99.90
31271;DHT22;17904;47.420;9.310;2022-08-20T04:32:58;13.50;99.90
31271;DHT22;17904;47.420;9.310;2022-08-20T04:35:25;13.50;99.90
31271;DHT22;17904;47.420;9.310;2022-08-20T04:37:56;13.50;99.90
31271;DHT22;17904;47.420;9.310;2022-08-20T04:40:23;13.50;99.90
31271;DHT22;17904;47.420;9.310;2022-08-20T04:43:09;13.50;99.90
31271;DHT22;17904;47.420;9.310;2022-08-20T04:45:37;13.50;99.90
31271;DHT22;17904;47.420;9.310;2022-08-20T04:48:04;13.50;99.90
31271;DHT22;17904;47.420;9.310;2022-08-20T04:50:35;13.60;99.90
31271;DHT22;17904;47.420;9.310;2022-08-20T04:53:06;13.60;99.90
31271;DHT22;17904;47.420;9.310;2022-08-20T04:55:33;13.60;99.90
31271;DHT22;17904;47.420;9.310;2022-08-20T04:58:04;13.60;99.90
31271;DHT22;17904;47.420;9.310;2022-08-20T05:00:31;13.60;99.90
31271;DHT22;17904;47.420;9.310;2022-08-20T05:02:58;13.70;99.90
31271;DHT22;17904;47.420;9.310;2022-08-20T05:05:25;13.70;99.90
31271;DHT22;17904;47.420;9.310;2022-08-20T05:07:53;13.70;99.90
31271;DHT22;17904;47.420;9.310;2022-08-20T05:10:21;13.80;99.90
31271;DHT22;17904;47.420;9.310;2022-08-20T05:12:49;13.80;99.90
31271;DHT22;17904;47.420;9.310;2022-08-20T05:15:22;13.90;99.90
31271;DHT22;17904;47.420;9.310;2022-08-20T05:17:54;13.90;99.90
31271;DHT22;17904;47.420;9.310;2022-08-20T05:20:21;14.00;99.90
31271;DHT22;17904;47.420;9.310;2022-08-20T05:22:48;14.00;99.90
31271;DHT22;17904;47.420;9.310;2022-08-20T05:25:16;14.10;99.90
31271;DHT22;17904;47.420;9.310;2022-08-20T05:27:43;14.10;99.90
31271;DHT22;17904;47.420;9.310;2022-08-20T05:30:13;14.20;99.90
31271;DHT22;17904;47.420;9.310;2022-08-20T05:32:40;14.30;99.90
31271;DHT22;17904;47.420;9.310;2022-08-20T05:35:10;14.40;99.90
31271;DHT22;17904;47.420;9.310;2022-08-20T05:37:37;14.40;99.90
31271;DHT22;17904;47.420;9.310;2022-08-20T05:40:08;14.50;99.90
31271;DHT22;17904;47.420;9.310;2022-08-20T05:42:36;14.60;99.90
31271;DHT22;17904;47.420;9.310;2022-08-20T05:45:03;14.70;99.90
31271;DHT22;17904;47.420;9.310;2022-08-20T05:47:37;14.70;99.90
31271;DHT22;17904;47.420;9.310;2022-08-20T05:50:08;14.80;99.90
31271;DHT22;17904;47.420;9.310;2022-08-20T05:52:45;14.90;99.90
31271;DHT22;17904;47.420;9.310;2022-08-20T05:55:12;15.00;99.90
31271;DHT22;17904;47.420;9.310;2022-08-20T05:57:39;15.10;99.90
31271;DHT22;17904;47.420;9.310;2022-08-20T06:00:08;15.20;99.90
31271;DHT22;17904;47.420;9.310;2022-08-20T06:02:38;15.30;99.90
31271;DHT22;17904;47.420;9.310;2022-08-20T06:05:24;15.40;99.90
31271;DHT22;17904;47.420;9.310;2022-08-20T06:07:51;15.40;99.90
31271;DHT22;17904;47.420;9.310;2022-08-20T06:10:21;15.50;99.90
31271;DHT22;17904;47.420;9.310;2022-08-20T06:12:48;15.60;99.90
31271;DHT22;17904;47.420;9.310;2022-08-20T06:15:14;15.60;99.90
31271;DHT22;17904;47.420;9.310;2022-08-20T06:17:41;15.60;99.90
31271;DHT22;17904;47.420;9.310;2022-08-20T06:20:08;15.60;99.90
31271;DHT22;17904;47.420;9.310;2022-08-20T06:22:36;15.70;99.90
31271;DHT22;17904;47.420;9.310;2022-08-20T06:25:04;15.70;99.90
31271;DHT22;17904;47.420;9.310;2022-08-20T06:27:31;15.80;99.90
31271;DHT22;17904;47.420;9.310;2022-08-20T06:30:01;15.90;99.90
31271;DHT22;17904;47.420;9.310;2022-08-20T06:32:27;16.00;99.90
31271;DHT22;17904;47.420;9.310;2022-08-20T06:34:59;16.20;99.90
31271;DHT22;17904;47.420;9.310;2022-08-20T06:37:28;16.30;99.90
31271;DHT22;17904;47.420;9.310;2022-08-20T06:40:17;16.40;99.90
31271;DHT22;17904;47.420;9.310;2022-08-20T06:42:45;16.60;99.90
31271;DHT22;17904;47.420;9.310;2022-08-20T06:45:16;16.60;99.90
31271;DHT22;17904;47.420;9.310;2022-08-20T06:47:43;16.70;99.90
31271;DHT22;17904;47.420;9.310;2022-08-20T06:50:12;16.90;99.90
31271;DHT22;17904;47.420;9.310;2022-08-20T06:52:39;17.00;99.90
31271;DHT22;17904;47.420;9.310;2022-08-20T06:55:19;17.10;99.90
31271;DHT22;17904;47.420;9.310;2022-08-20T06:57:46;17.30;99.90
31271;DHT22;17904;47.420;9.310;2022-08-20T07:00:15;17.30;99.90
31271;DHT22;17904;47.420;9.310;2022-08-20T07:02:42;17.40;99.90
31271;DHT22;17904;47.420;9.310;2022-08-20T07:05:09;17.40;99.90
31271;DHT22;17904;47.420;9.310;2022-08-20T07:07:36;17.40;99.90
31271;DHT22;17904;47.420;9.310;2022-08-20T07:10:07;17.40;99.90
31271;DHT22;17904;47.420;9.310;2022-08-20T07:12:34;17.50;99.90
31271;DHT22;17904;47.420;9.310;2022-08-20T07:15:05;17.60;99.90
31271;DHT22;17904;47.420;9.310;2022-08-20T07:17:33;17.70;99.90
31271;DHT22;17904;47.420;9.310;2022-08-20T07:20:35;17.80;99.90
31271;DHT22;17904;47.420;9.310;2022-08-20T07:22:53;17.90;99.90
31271;DHT22;17904;47.420;9.310;2022-08-20T07:25:20;18.00;99.90
31271;DHT22;17904;47.420;9.310;2022-08-20T07:27:47;18.10;99.90
31271;DHT22;17904;47.420;9.310;2022-08-20T07:30:20;18.20;99.90
31271;DHT22;17904;47.420;9.310;2022-08-20T07:33:23;18.30;99.90
31271;DHT22;17904;47.420;9.310;2022-08-20T07:35:51;18.40;99.90
31271;DHT22;17904;47.420;9.310;2022-08-20T07:38:19;18.50;99.90
31271;DHT22;17904;47.420;9.310;2022-08-20T07:40:57;18.50;99.90
31271;DHT22;17904;47.420;9.310;2022-08-20T07:43:24;18.50;99.90
31271;DHT22;17904;47.420;9.310;2022-08-20T07:45:52;18.50;99.90
31271;DHT22;17904;47.420;9.310;2022-08-20T07:48:23;18.50;99.90
31271;DHT22;17904;47.420;9.310;2022-08-20T07:50:58;18.40;99.90
31271;DHT22;17904;47.420;9.310;2022-08-20T07:53:25;18.40;99.90
31271;DHT22;17904;47.420;9.310;2022-08-20T07:55:52;18.80;99.90
31271;DHT22;17904;47.420;9.310;2022-08-20T07:58:24;19.50;99.90
31271;DHT22;17904;47.420;9.310;2022-08-20T08:00:59;20.30;99.90
31271;DHT22;17904;47.420;9.310;2022-08-20T08:03:26;20.90;99.90
31271;DHT22;17904;47.420;9.310;2022-08-20T08:06:14;21.00;99.90
31271;DHT22;17904;47.420;9.310;2022-08-20T08:08:56;20.60;99.90
31271;DHT22;17904;47.420;9.310;2022-08-20T08:11:23;20.20;99.90
31271;DHT22;17904;47.420;9.310;2022-08-20T08:13:50;19.90;99.90
31271;DHT22;17904;47.420;9.310;2022-08-20T08:16:17;19.90;99.90
31271;DHT22;17904;47.420;9.310;2022-08-20T08:18:46;19.80;99.90
31271;DHT22;17904;47.420;9.310;2022-08-20T08:21:15;19.70;99.90
31271;DHT22;17904;47.420;9.310;2022-08-20T08:23:43;19.50;99.90
31271;DHT22;17904;47.420;9.310;2022-08-20T08:26:11;19.40;99.90
31271;DHT22;17904;47.420;9.310;2022-08-20T08:28:44;19.30;99.90
31271;DHT22;17904;47.420;9.310;2022-08-20T08:31:11;19.20;99.90
31271;DHT22;17904;47.420;9.310;2022-08-20T08:33:38;19.10;99.90
31271;DHT22;17904;47.420;9.310;2022-08-20T08:36:07;18.90;99.90
31271;DHT22;17904;47.420;9.310;2022-08-20T08:38:35;18.90;99.90
31271;DHT22;17904;47.420;9.310;2022-08-20T08:41:20;18.80;99.90
31271;DHT22;17904;47.420;9.310;2022-08-20T08:43:48;18.80;99.90
31271;DHT22;17904;47.420;9.310;2022-08-20T08:46:17;18.80;99.90
31271;DHT22;17904;47.420;9.310;2022-08-20T08:48:44;19.00;99.90
31271;DHT22;17904;47.420;9.310;2022-08-20T08:51:14;19.40;99.90
31271;DHT22;17904;47.420;9.310;2022-08-20T08:53:51;19.90;99.90
31271;DHT22;17904;47.420;9.310;2022-08-20T08:56:22;20.20;99.90
31271;DHT22;17904;47.420;9.310;2022-08-20T08:58:50;20.30;99.90
31271;DHT22;17904;47.420;9.310;2022-08-20T09:01:17;20.30;99.90
31271;DHT22;17904;47.420;9.310;2022-08-20T09:04:05;20.30;99.90
31271;DHT22;17904;47.420;9.310;2022-08-20T09:06:33;20.10;99.90
31271;DHT22;17904;47.420;9.310;2022-08-20T09:09:02;19.90;99.90
31271;DHT22;17904;47.420;9.310;2022-08-20T09:11:42;19.70;99.90
31271;DHT22;17904;47.420;9.310;2022-08-20T09:14:09;19.50;99.90
31271;DHT22;17904;47.420;9.310;2022-08-20T09:16:36;19.40;99.90
31271;DHT22;17904;47.420;9.310;2022-08-20T09:19:19;19.30;99.90
31271;DHT22;17904;47.420;9.310;2022-08-20T09:21:46;19.30;99.90
31271;DHT22;17904;47.420;9.310;2022-08-20T09:24:13;19.40;99.90
31271;DHT22;17904;47.420;9.310;2022-08-20T09:26:40;19.50;99.90
31271;DHT22;17904;47.420;9.310;2022-08-20T09:29:07;19.50;99.90
31271;DHT22;17904;47.420;9.310;2022-08-20T09:31:34;19.50;99.90
31271;DHT22;17904;47.420;9.310;2022-08-20T09:34:03;19.50;99.90
31271;DHT22;17904;47.420;9.310;2022-08-20T09:36:30;19.50;99.90
31271;DHT22;17904;47.420;9.310;2022-08-20T09:38:58;19.40;99.90
31271;DHT22;17904;47.420;9.310;2022-08-20T09:41:26;19.40;99.90
31271;DHT22;17904;47.420;9.310;2022-08-20T09:43:52;19.40;99.90
31271;DHT22;17904;47.420;9.310;2022-08-20T09:46:20;19.40;99.90
31271;DHT22;17904;47.420;9.310;2022-08-20T09:48:53;19.30;99.90
31271;DHT22;17904;47.420;9.310;2022-08-20T09:51:20;19.30;99.90
31271;DHT22;17904;47.420;9.310;2022-08-20T09:53:47;19.40;99.90
31271;DHT22;17904;47.420;9.310;2022-08-20T09:56:14;19.70;99.90
31271;DHT22;17904;47.420;9.310;2022-08-20T09:58:48;20.20;99.90
31271;DHT22;17904;47.420;9.310;2022-08-20T10:01:16;20.60;99.90
31271;DHT22;17904;47.420;9.310;2022-08-20T10:03:44;20.80;99.90
31271;DHT22;17904;47.420;9.310;2022-08-20T10:06:13;21.00;99.90
31271;DHT22;17904;47.420;9.310;2022-08-20T10:08:42;21.10;99.90
31271;DHT22;17904;47.420;9.310;2022-08-20T10:11:09;21.20;99.90
31271;DHT22;17904;47.420;9.310;2022-08-20T10:13:35;21.00;99.90
31271;DHT22;17904;47.420;9.310;2022-08-20T10:16:02;20.80;99.90
31271;DHT22;17904;47.420;9.310;2022-08-20T10:18:29;20.60;99.90
31271;DHT22;17904;47.420;9.310;2022-08-20T10:20:56;20.40;99.90
31271;DHT22;17904;47.420;9.310;2022-08-20T10:23:22;20.30;99.90
31271;DHT22;17904;47.420;9.310;2022-08-20T10:25:49;20.10;99.90
31271;DHT22;17904;47.420;9.310;2022-08-20T10:28:16;20.00;99.90
31271;DHT22;17904;47.420;9.310;2022-08-20T10:30:42;19.90;99.90
31271;DHT22;17904;47.420;9.310;2022-08-20T10:33:10;19.80;99.90
31271;DHT22;17904;47.420;9.310;2022-08-20T10:35:37;19.80;99.90
31271;DHT22;17904;47.420;9.310;2022-08-20T10:38:04;19.80;99.90
31271;DHT22;17904;47.420;9.310;2022-08-20T10:40:30;19.90;99.90
31271;DHT22;17904;47.420;9.310;2022-08-20T10:42:57;20.00;99.90
31271;DHT22;17904;47.420;9.310;2022-08-20T10:45:24;20.10;99.90
31271;DHT22;17904;47.420;9.310;2022-08-20T10:47:51;20.30;99.90
31271;DHT22;17904;47.420;9.310;2022-08-20T10:50:18;20.50;99.90
31271;DHT22;17904;47.420;9.310;2022-08-20T10:52:46;20.60;99.90
31271;DHT22;17904;47.420;9.310;2022-08-20T10:55:13;20.60;99.90
31271;DHT22;17904;47.420;9.310;2022-08-20T10:57:40;20.70;99.90
31271;DHT22;17904;47.420;9.310;2022-08-20T11:00:10;20.70;99.90
31271;DHT22;17904;47.420;9.310;2022-08-20T11:02:37;20.70;99.90
31271;DHT22;17904;47.420;9.310;2022-08-20T11:05:04;20.70;99.90
31271;DHT22;17904;47.420;9.310;2022-08-20T11:07:32;20.70;99.90
31271;DHT22;17904;47.420;9.310;2022-08-20T11:10:20;20.70;99.90
31271;DHT22;17904;47.420;9.310;2022-08-20T11:12:47;20.70;99.90
31271;DHT22;17904;47.420;9.310;2022-08-20T11:15:14;20.70;99.90
31271;DHT22;17904;47.420;9.310;2022-08-20T11:17:41;20.70;99.90
31271;DHT22;17904;47.420;9.310;2022-08-20T11:20:09;20.60;99.90
31271;DHT22;17904;47.420;9.310;2022-08-20T11:22:36;20.60;99.90
31271;DHT22;17904;47.420;9.310;2022-08-20T11:25:04;20.60;99.90
31271;DHT22;17904;47.420;9.310;2022-08-20T11:27:32;20.70;99.90
31271;DHT22;17904;47.420;9.310;2022-08-20T11:29:59;20.80;99.90
31271;DHT22;17904;47.420;9.310;2022-08-20T11:32:26;21.10;99.90
31271;DHT22;17904;47.420;9.310;2022-08-20T11:34:53;21.40;99.90
31271;DHT22;17904;47.420;9.310;2022-08-20T11:37:21;21.80;99.90
31271;DHT22;17904;47.420;9.310;2022-08-20T11:39:49;22.10;99.90
31271;DHT22;17904;47.420;9.310;2022-08-20T11:42:16;22.20;99.90
31271;DHT22;17904;47.420;9.310;2022-08-20T11:44:43;22.40;99.90
31271;DHT22;17904;47.420;9.310;2022-08-20T11:47:18;22.50;99.90
31271;DHT22;17904;47.420;9.310;2022-08-20T11:49:45;22.60;99.90
31271;DHT22;17904;47.420;9.310;2022-08-20T11:52:12;22.70;99.90
31271;DHT22;17904;47.420;9.310;2022-08-20T11:54:40;22.70;99.90
31271;DHT22;17904;47.420;9.310;2022-08-20T11:57:09;22.60;99.90
31271;DHT22;17904;47.420;9.310;2022-08-20T11:59:36;22.70;99.90
31271;DHT22;17904;47.420;9.310;2022-08-20T12:02:03;22.60;99.90
31271;DHT22;17904;47.420;9.310;2022-08-20T12:04:34;22.60;99.90
31271;DHT22;17904;47.420;9.310;2022-08-20T12:07:08;22.60;99.90
31271;DHT22;17904;47.420;9.310;2022-08-20T12:09:35;22.60;99.90
31271;DHT22;17904;47.420;9.310;2022-08-20T12:12:07;22.70;99.90
31271;DHT22;17904;47.420;9.310;2022-08-20T12:14:35;22.80;99.90
31271;DHT22;17904;47.420;9.310;2022-08-20T12:17:16;22.90;99.90
31271;DHT22;17904;47.420;9.310;2022-08-20T12:19:45;22.90;99.90
31271;DHT22;17904;47.420;9.310;2022-08-20T12:22:12;22.80;99.90
31271;DHT22;17904;47.420;9.310;2022-08-20T12:27:48;22.70;99.90
31271;DHT22;17904;47.420;9.310;2022-08-20T12:30:18;22.60;99.90
31271;DHT22;17904;47.420;9.310;2022-08-20T12:32:45;22.50;99.90
31271;DHT22;17904;47.420;9.310;2022-08-20T12:35:14;22.40;99.90
31271;DHT22;17904;47.420;9.310;2022-08-20T12:37:42;22.30;99.90
31271;DHT22;17904;47.420;9.310;2022-08-20T12:40:12;22.10;99.90
31271;DHT22;17904;47.420;9.310;2022-08-20T12:42:39;22.00;99.90
31271;DHT22;17904;47.420;9.310;2022-08-20T12:45:07;22.00;99.90
31271;DHT22;17904;47.420;9.310;2022-08-20T12:47:37;21.90;99.90
31271;DHT22;17904;47.420;9.310;2022-08-20T12:50:11;21.90;99.90
31271;DHT22;17904;47.420;9.310;2022-08-20T12:52:38;21.90;99.90
31271;DHT22;17904;47.420;9.310;2022-08-20T12:55:06;21.90;99.90
31271;DHT22;17904;47.420;9.310;2022-08-20T12:57:36;22.00;99.90
31271;DHT22;17904;47.420;9.310;2022-08-20T13:00:11;22.10;99.90
31271;DHT22;17904;47.420;9.310;2022-08-20T13:02:39;22.20;99.90
31271;DHT22;17904;47.420;9.310;2022-08-20T13:05:08;22.40;99.90
31271;DHT22;17904;47.420;9.310;2022-08-20T13:07:36;22.40;99.90
31271;DHT22;17904;47.420;9.310;2022-08-20T13:10:05;22.50;99.90
31271;DHT22;17904;47.420;9.310;2022-08-20T13:12:32;22.60;99.90
31271;DHT22;17904;47.420;9.310;2022-08-20T13:14:59;22.60;99.90
31271;DHT22;17904;47.420;9.310;2022-08-20T13:17:26;22.50;99.90
31271;DHT22;17904;47.420;9.310;2022-08-20T13:20:07;22.50;99.90
31271;DHT22;17904;47.420;9.310;2022-08-20T13:22:35;22.50;99.90
31271;DHT22;17904;47.420;9.310;2022-08-20T13:25:03;22.50;99.90
31271;DHT22;17904;47.420;9.310;2022-08-20T13:27:31;22.50;99.90
31271;DHT22;17904;47.420;9.310;2022-08-20T13:29:58;22.40;99.90
31271;DHT22;17904;47.420;9.310;2022-08-20T13:32:25;22.40;99.90
31271;DHT22;17904;47.420;9.310;2022-08-20T13:34:53;22.40;99.90
31271;DHT22;17904;47.420;9.310;2022-08-20T13:37:25;22.40;99.90
31271;DHT22;17904;47.420;9.310;2022-08-20T13:39:53;22.40;99.90
31271;DHT22;17904;47.420;9.310;2022-08-20T13:42:21;22.50;99.90
31271;DHT22;17904;47.420;9.310;2022-08-20T13:44:48;22.50;99.90
31271;DHT22;17904;47.420;9.310;2022-08-20T13:47:28;22.50;99.90
31271;DHT22;17904;47.420;9.310;2022-08-20T13:50:01;22.40;99.90
31271;DHT22;17904;47.420;9.310;2022-08-20T13:52:31;22.30;99.90
31271;DHT22;17904;47.420;9.310;2022-08-20T13:55:01;22.20;99.90
31271;DHT22;17904;47.420;9.310;2022-08-20T13:57:33;22.10;99.90
31271;DHT22;17904;47.420;9.310;2022-08-20T14:00:02;22.00;99.90
31271;DHT22;17904;47.420;9.310;2022-08-20T14:02:30;21.80;99.90
31271;DHT22;17904;47.420;9.310;2022-08-20T14:04:57;21.80;99.90
31271;DHT22;17904;47.420;9.310;2022-08-20T14:07:26;21.70;99.90
31271;DHT22;17904;47.420;9.310;2022-08-20T14:10:01;21.70;99.90
31271;DHT22;17904;47.420;9.310;2022-08-20T14:12:30;21.60;99.90
31271;DHT22;17904;47.420;9.310;2022-08-20T14:14:57;21.60;99.90
31271;DHT22;17904;47.420;9.310;2022-08-20T14:17:25;21.50;99.90
31271;DHT22;17904;47.420;9.310;2022-08-20T14:19:58;21.50;99.90
31271;DHT22;17904;47.420;9.310;2022-08-20T14:22:28;21.60;99.90
31271;DHT22;17904;47.420;9.310;2022-08-20T14:24:55;21.60;99.90
31271;DHT22;17904;47.420;9.310;2022-08-20T14:27:23;21.60;99.90
31271;DHT22;17904;47.420;9.310;2022-08-20T14:29:57;21.60;99.90
31271;DHT22;17904;47.420;9.310;2022-08-20T14:32:24;21.70;99.90
31271;DHT22;17904;47.420;9.310;2022-08-20T14:34:52;21.70;99.90
31271;DHT22;17904;47.420;9.310;2022-08-20T14:37:24;21.70;99.90
31271;DHT22;17904;47.420;9.310;2022-08-20T14:39:54;21.70;99.90
31271;DHT22;17904;47.420;9.310;2022-08-20T14:42:24;21.80;99.90
31271;DHT22;17904;47.420;9.310;2022-08-20T14:44:56;21.80;99.90
31271;DHT22;17904;47.420;9.310;2022-08-20T14:47:29;21.90;99.90
31271;DHT22;17904;47.420;9.310;2022-08-20T14:49:58;22.00;99.90
31271;DHT22;17904;47.420;9.310;2022-08-20T14:52:30;22.10;99.90
31271;DHT22;17904;47.420;9.310;2022-08-20T14:54:59;22.20;99.90
31271;DHT22;17904;47.420;9.310;2022-08-20T14:57:26;22.20;99.90
31271;DHT22;17904;47.420;9.310;2022-08-20T14:59:53;22.10;99.90
31271;DHT22;17904;47.420;9.310;2022-08-20T15:02:20;22.00;99.90
31271;DHT22;17904;47.420;9.310;2022-08-20T15:04:48;22.00;99.90
31271;DHT22;17904;47.420;9.310;2022-08-20T15:07:33;21.80;99.90
31271;DHT22;17904;47.420;9.310;2022-08-20T15:10:02;21.70;99.90
31271;DHT22;17904;47.420;9.310;2022-08-20T15:12:31;21.60;99.90
31271;DHT22;17904;47.420;9.310;2022-08-20T15:15:05;21.60;99.90
31271;DHT22;17904;47.420;9.310;2022-08-20T15:17:44;21.50;99.90
31271;DHT22;17904;47.420;9.310;2022-08-20T15:20:13;21.40;99.90
31271;DHT22;17904;47.420;9.310;2022-08-20T15:22:47;21.30;99.90
31271;DHT22;17904;47.420;9.310;2022-08-20T15:25:16;21.30;99.90
31271;DHT22;17904;47.420;9.310;2022-08-20T15:27:44;21.20;99.90
31271;DHT22;17904;47.420;9.310;2022-08-20T15:30:14;21.00;99.90
31271;DHT22;17904;47.420;9.310;2022-08-20T15:32:41;20.80;99.90
31271;DHT22;17904;47.420;9.310;2022-08-20T15:35:08;20.70;99.90
31271;DHT22;17904;47.420;9.310;2022-08-20T15:37:42;20.50;99.90
31271;DHT22;17904;47.420;9.310;2022-08-20T15:40:12;20.40;99.90
31271;DHT22;17904;47.420;9.310;2022-08-20T15:42:42;20.40;99.90
31271;DHT22;17904;47.420;9.310;2022-08-20T15:45:14;20.30;99.90
31271;DHT22;17904;47.420;9.310;2022-08-20T15:47:52;20.20;99.90
31271;DHT22;17904;47.420;9.310;2022-08-20T15:53:16;20.00;99.90
31271;DHT22;17904;47.420;9.310;2022-08-20T15:55:58;19.90;99.90